createdAt,value
2024-02-23T00:00:26.433Z,78.93
2024-02-23T00:01:19.663Z,78.66
2024-02-23T00:01:53.128Z,78.88
2024-02-23T00:02:26.769Z,78.68
2024-02-23T00:03:00.109Z,79.17
2024-02-23T00:03:37.327Z,79.11
2024-02-23T00:04:11.267Z,79.02
2024-02-23T00:04:44.536Z,78.90
2024-02-23T00:05:17.819Z,79.01
2024-02-23T00:05:51.073Z,79.01
2024-02-23T00:06:28.609Z,79.05
2024-02-23T00:07:04.044Z,78.86
2024-02-23T00:07:37.227Z,79.03
2024-02-23T00:08:10.422Z,78.75
2024-02-23T00:08:44.226Z,78.73
2024-02-23T00:09:17.374Z,78.59
2024-02-23T00:09:50.412Z,79.01
2024-02-23T00:10:23.889Z,78.84
2024-02-23T00:10:57.088Z,79.19
2024-02-23T00:11:30.485Z,79.02
2024-02-23T00:12:04.711Z,79.02
2024-02-23T00:12:38.296Z,78.94
2024-02-23T00:13:11.563Z,79.22
2024-02-23T00:13:44.770Z,79.19
2024-02-23T00:14:19.782Z,79.48
2024-02-23T00:14:52.929Z,79.44
2024-02-23T00:15:26.595Z,79.59
2024-02-23T00:15:59.767Z,79.82
2024-02-23T00:16:32.778Z,79.92
2024-02-23T00:17:06.082Z,79.94
2024-02-23T00:17:40.622Z,79.91
2024-02-23T00:18:16.145Z,79.88
2024-02-23T00:18:49.749Z,79.94
2024-02-23T00:19:23.841Z,79.91
2024-02-23T00:19:57.256Z,79.89
2024-02-23T00:20:30.595Z,80.09
2024-02-23T00:21:04.105Z,79.83
2024-02-23T00:21:38.092Z,79.82
2024-02-23T00:22:11.371Z,79.63
2024-02-23T00:22:44.526Z,79.85
2024-02-23T00:23:17.732Z,79.86
2024-02-23T00:23:50.946Z,79.65
2024-02-23T00:24:24.190Z,79.64
2024-02-23T00:24:57.478Z,79.53
2024-02-23T00:25:30.691Z,79.53
2024-02-23T00:26:04.301Z,79.87
2024-02-23T00:26:37.502Z,79.76
2024-02-23T00:27:10.486Z,79.90
2024-02-23T00:27:43.578Z,79.78
2024-02-23T00:28:16.626Z,79.89
2024-02-23T00:28:49.932Z,79.97
2024-02-23T00:29:23.843Z,80.11
2024-02-23T00:29:57.295Z,80.23
2024-02-23T00:30:30.488Z,80.09
2024-02-23T00:31:03.559Z,80.22
2024-02-23T00:31:42.165Z,80.26
2024-02-23T00:32:15.432Z,80.37
2024-02-23T00:32:48.722Z,80.21
2024-02-23T00:33:21.899Z,80.57
2024-02-23T00:33:55.173Z,80.42
2024-02-23T00:34:28.593Z,80.26
2024-02-23T00:35:01.883Z,80.10
2024-02-23T00:35:35.295Z,80.15
2024-02-23T00:36:08.652Z,80.00
2024-02-23T00:36:43.076Z,79.96
2024-02-23T00:37:16.511Z,79.96
2024-02-23T00:37:49.683Z,80.11
2024-02-23T00:38:22.907Z,80.15
2024-02-23T00:38:56.067Z,80.03
2024-02-23T00:39:29.134Z,80.24
2024-02-23T00:40:05.431Z,79.87
2024-02-23T00:40:39.407Z,80.26
2024-02-23T00:41:12.589Z,80.11
2024-02-23T00:41:45.699Z,80.10
2024-02-23T00:42:18.782Z,80.03
2024-02-23T00:42:52.070Z,80.16
2024-02-23T00:43:25.361Z,80.00
2024-02-23T00:43:58.626Z,80.24
2024-02-23T00:44:31.859Z,80.03
2024-02-23T00:45:06.715Z,80.19
2024-02-23T00:45:39.887Z,80.26
2024-02-23T00:46:15.344Z,80.12
2024-02-23T00:46:49.278Z,80.27
2024-02-23T00:47:22.523Z,80.28
2024-02-23T00:47:55.882Z,80.13
2024-02-23T00:48:29.116Z,80.23
2024-02-23T00:49:02.468Z,80.31
2024-02-23T00:49:35.822Z,80.15
2024-02-23T00:50:09.434Z,80.09
2024-02-23T00:50:42.675Z,80.30
2024-02-23T00:51:15.877Z,80.06
2024-02-23T00:51:49.085Z,80.05
2024-02-23T00:52:22.351Z,80.24
2024-02-23T00:52:55.777Z,80.17
2024-02-23T00:53:29.273Z,80.43
2024-02-23T00:54:02.476Z,80.29
2024-02-23T00:54:35.516Z,80.24
2024-02-23T00:55:09.454Z,80.31
2024-02-23T00:55:42.690Z,80.21
2024-02-23T00:56:16.189Z,80.41
2024-02-23T00:56:51.554Z,80.65
2024-02-23T00:57:30.976Z,80.27
2024-02-23T00:58:04.812Z,80.56
2024-02-23T00:58:37.942Z,80.58
2024-02-23T00:59:10.994Z,80.45
2024-02-23T00:59:44.305Z,80.23
2024-02-23T01:00:17.541Z,80.32
2024-02-23T01:00:50.816Z,80.32
2024-02-23T01:01:24.003Z,80.33
2024-02-23T01:01:57.202Z,80.27
2024-02-23T01:02:30.786Z,80.42
2024-02-23T01:03:04.278Z,80.22
2024-02-23T01:03:37.472Z,80.42
2024-02-23T01:04:10.802Z,80.49
2024-02-23T01:04:44.281Z,80.36
2024-02-23T01:05:18.398Z,80.50
2024-02-23T01:05:51.695Z,80.56
2024-02-23T01:06:26.401Z,80.01
2024-02-23T01:06:59.991Z,80.23
2024-02-23T01:07:33.926Z,80.36
2024-02-23T01:08:07.590Z,80.11
2024-02-23T01:08:41.471Z,80.21
2024-02-23T01:09:14.687Z,80.27
2024-02-23T01:09:47.981Z,80.26
2024-02-23T01:10:21.226Z,80.13
2024-02-23T01:10:55.005Z,80.17
2024-02-23T01:11:28.541Z,80.45
2024-02-23T01:12:02.422Z,80.17
2024-02-23T01:12:35.972Z,80.29
2024-02-23T01:13:09.813Z,80.21
2024-02-23T01:13:43.425Z,80.21
2024-02-23T01:14:17.280Z,80.33
2024-02-23T01:14:50.773Z,80.11
2024-02-23T01:15:24.388Z,80.18
2024-02-23T01:15:57.743Z,80.08
2024-02-23T01:16:33.851Z,79.88
2024-02-23T01:17:07.392Z,79.70
2024-02-23T01:17:40.816Z,79.90
2024-02-23T01:18:14.386Z,79.89
2024-02-23T01:18:47.860Z,79.81
2024-02-23T01:19:21.385Z,79.48
2024-02-23T01:19:54.879Z,79.51
2024-02-23T01:20:28.396Z,79.34
2024-02-23T01:21:02.156Z,79.31
2024-02-23T01:21:35.536Z,79.24
2024-02-23T01:22:09.182Z,79.31
2024-02-23T01:22:42.655Z,79.23
2024-02-23T01:23:15.953Z,79.30
2024-02-23T01:23:49.364Z,79.15
2024-02-23T01:24:22.799Z,79.17
2024-02-23T01:24:56.145Z,79.21
2024-02-23T01:25:29.493Z,79.37
2024-02-23T01:26:03.951Z,79.23
2024-02-23T01:26:39.844Z,78.94
2024-02-23T01:27:14.916Z,78.94
2024-02-23T01:27:49.462Z,78.94
2024-02-23T01:28:23.217Z,79.09
2024-02-23T01:28:56.563Z,78.85
2024-02-23T01:29:29.927Z,79.04
2024-02-23T01:30:03.486Z,78.77
2024-02-23T01:30:36.935Z,78.93
2024-02-23T01:31:11.569Z,79.01
2024-02-23T01:31:45.153Z,78.84
2024-02-23T01:32:18.535Z,78.56
2024-02-23T01:32:52.158Z,78.92
2024-02-23T01:33:25.589Z,78.68
2024-02-23T01:33:59.057Z,78.95
2024-02-23T01:34:32.386Z,78.72
2024-02-23T01:35:07.195Z,78.83
2024-02-23T01:35:40.854Z,78.68
2024-02-23T01:36:14.251Z,78.88
2024-02-23T01:36:48.288Z,78.65
2024-02-23T01:37:25.794Z,78.45
2024-02-23T01:37:59.361Z,78.52
2024-02-23T01:38:34.069Z,78.67
2024-02-23T01:39:08.561Z,78.71
2024-02-23T01:39:42.419Z,78.75
2024-02-23T01:40:15.878Z,78.68
2024-02-23T01:40:49.257Z,78.45
2024-02-23T01:41:22.687Z,78.71
2024-02-23T01:41:56.185Z,78.63
2024-02-23T01:42:29.323Z,78.57
2024-02-23T01:43:04.611Z,78.45
2024-02-23T01:43:37.907Z,78.51
2024-02-23T01:44:12.159Z,78.33
2024-02-23T01:44:45.271Z,78.68
2024-02-23T01:45:18.315Z,78.49
2024-02-23T01:45:51.941Z,78.41
2024-02-23T01:46:25.339Z,78.55
2024-02-23T01:46:58.714Z,78.43
2024-02-23T01:47:32.107Z,78.76
2024-02-23T01:48:05.953Z,78.67
2024-02-23T01:48:39.296Z,78.51
2024-02-23T01:49:12.867Z,78.68
2024-02-23T01:49:48.773Z,78.80
2024-02-23T01:50:22.037Z,78.68
2024-02-23T01:50:55.412Z,78.75
2024-02-23T01:51:28.862Z,78.64
2024-02-23T01:52:04.049Z,78.73
2024-02-23T01:52:38.306Z,78.84
2024-02-23T01:53:13.990Z,78.79
2024-02-23T01:53:47.528Z,79.03
2024-02-23T01:54:21.096Z,78.82
2024-02-23T01:54:55.871Z,78.99
2024-02-23T01:55:31.687Z,79.04
2024-02-23T01:56:07.428Z,79.05
2024-02-23T01:56:41.516Z,79.08
2024-02-23T01:57:30.910Z,78.77
2024-02-23T01:58:09.203Z,79.04
2024-02-23T01:58:42.664Z,79.09
2024-02-23T01:59:16.031Z,79.17
2024-02-23T01:59:50.409Z,79.32
2024-02-23T02:00:23.742Z,79.25
2024-02-23T02:01:00.084Z,79.13
2024-02-23T02:01:33.717Z,79.59
2024-02-23T02:02:10.425Z,79.32
2024-02-23T02:02:45.577Z,79.52
2024-02-23T02:03:18.954Z,79.45
2024-02-23T02:03:52.449Z,79.40
2024-02-23T02:04:25.949Z,79.47
2024-02-23T02:04:59.961Z,79.37
2024-02-23T02:05:33.600Z,79.45
2024-02-23T02:06:09.517Z,79.52
2024-02-23T02:06:43.548Z,79.84
2024-02-23T02:07:16.999Z,79.45
2024-02-23T02:07:56.500Z,79.43
2024-02-23T02:08:30.094Z,79.99
2024-02-23T02:09:03.649Z,79.88
2024-02-23T02:09:37.218Z,79.95
2024-02-23T02:10:11.412Z,79.93
2024-02-23T02:10:46.914Z,80.36
2024-02-23T02:11:20.393Z,79.96
2024-02-23T02:11:54.521Z,79.79
2024-02-23T02:12:29.359Z,79.79
2024-02-23T02:13:05.790Z,79.44
2024-02-23T02:13:39.334Z,79.23
2024-02-23T02:14:12.929Z,79.24
2024-02-23T02:14:46.303Z,79.19
2024-02-23T02:15:19.854Z,78.82
2024-02-23T02:15:53.235Z,78.65
2024-02-23T02:16:26.917Z,79.02
2024-02-23T02:17:00.428Z,78.96
2024-02-23T02:17:36.964Z,78.72
2024-02-23T02:18:12.400Z,79.04
2024-02-23T02:18:47.158Z,79.04
2024-02-23T02:19:20.638Z,78.76
2024-02-23T02:19:56.038Z,79.00
2024-02-23T02:20:34.253Z,78.75
2024-02-23T02:21:07.968Z,78.82
2024-02-23T02:21:42.381Z,78.81
2024-02-23T02:22:15.709Z,78.85
2024-02-23T02:22:49.125Z,78.83
2024-02-23T02:23:22.597Z,79.23
2024-02-23T02:23:57.848Z,79.21
2024-02-23T02:24:31.274Z,78.97
2024-02-23T02:25:05.539Z,78.83
2024-02-23T02:25:39.057Z,78.92
2024-02-23T02:26:12.613Z,79.03
2024-02-23T02:26:47.527Z,78.84
2024-02-23T02:27:23.476Z,78.77
2024-02-23T02:28:08.614Z,78.87
2024-02-23T02:28:41.993Z,78.63
2024-02-23T02:29:15.656Z,78.51
2024-02-23T02:29:52.180Z,78.47
2024-02-23T02:30:26.898Z,78.42
2024-02-23T02:31:03.103Z,78.51
2024-02-23T02:31:39.118Z,78.56
2024-02-23T02:32:14.801Z,78.24
2024-02-23T02:32:48.625Z,78.26
2024-02-23T02:33:23.626Z,78.27
2024-02-23T02:34:02.371Z,78.16
2024-02-23T02:34:35.862Z,78.62
2024-02-23T02:35:11.748Z,78.12
2024-02-23T02:35:45.193Z,78.65
2024-02-23T02:36:18.641Z,78.19
2024-02-23T02:36:58.761Z,78.32
2024-02-23T02:37:32.116Z,78.29
2024-02-23T02:38:05.571Z,78.22
2024-02-23T02:38:40.933Z,78.35
2024-02-23T02:39:14.392Z,78.46
2024-02-23T02:39:47.801Z,78.38
2024-02-23T02:40:21.527Z,78.53
2024-02-23T02:40:54.998Z,78.44
2024-02-23T02:42:34.957Z,78.54
2024-02-23T02:43:08.644Z,78.68
2024-02-23T02:43:43.482Z,78.62
2024-02-23T02:44:17.582Z,78.25
2024-02-23T02:44:51.066Z,78.42
2024-02-23T02:45:25.201Z,78.22
2024-02-23T02:45:59.276Z,78.15
2024-02-23T02:46:59.070Z,78.01
2024-02-23T02:47:32.668Z,77.86
2024-02-23T02:48:06.815Z,77.90
2024-02-23T02:48:40.339Z,78.00
2024-02-23T02:49:13.825Z,77.80
2024-02-23T02:49:47.358Z,78.18
2024-02-23T02:50:20.918Z,77.92
2024-02-23T02:50:54.736Z,77.98
2024-02-23T02:51:28.191Z,77.83
2024-02-23T02:52:02.086Z,77.89
2024-02-23T02:52:35.496Z,77.71
2024-02-23T02:53:09.037Z,78.06
2024-02-23T02:53:42.934Z,77.51
2024-02-23T02:54:17.518Z,77.86
2024-02-23T02:54:51.412Z,77.72
2024-02-23T02:55:24.926Z,77.68
2024-02-23T02:55:58.302Z,77.77
2024-02-23T02:56:31.941Z,77.85
2024-02-23T02:57:05.407Z,77.98
2024-02-23T02:57:38.829Z,77.72
2024-02-23T02:58:14.061Z,77.83
2024-02-23T02:58:47.551Z,78.13
2024-02-23T02:59:23.172Z,77.97
2024-02-23T02:59:58.034Z,77.98
2024-02-23T03:00:32.500Z,77.84
2024-02-23T03:01:05.889Z,77.65
2024-02-23T03:01:41.101Z,77.67
2024-02-23T03:02:14.615Z,77.66
2024-02-23T03:02:48.087Z,77.69
2024-02-23T03:03:21.627Z,77.50
2024-02-23T03:05:02.252Z,77.46
2024-02-23T03:05:35.904Z,77.06
2024-02-23T03:06:09.196Z,77.22
2024-02-23T03:06:42.344Z,77.24
2024-02-23T03:07:15.944Z,77.31
2024-02-23T03:07:49.064Z,77.45
2024-02-23T03:08:22.463Z,77.27
2024-02-23T03:08:55.657Z,77.24
2024-02-23T03:09:28.813Z,77.28
2024-02-23T03:10:02.124Z,77.62
2024-02-23T03:10:35.338Z,77.35
2024-02-23T03:11:08.429Z,77.64
2024-02-23T03:11:41.526Z,77.74
2024-02-23T03:12:14.829Z,77.64
2024-02-23T03:12:48.027Z,77.79
2024-02-23T03:13:21.039Z,77.79
2024-02-23T03:13:54.247Z,77.81
2024-02-23T03:14:27.429Z,77.84
2024-02-23T03:15:00.616Z,77.83
2024-02-23T03:15:34.645Z,78.08
2024-02-23T03:16:07.865Z,78.16
2024-02-23T03:16:41.012Z,77.57
2024-02-23T03:17:14.280Z,77.97
2024-02-23T03:17:47.366Z,77.94
2024-02-23T03:18:20.860Z,77.65
2024-02-23T03:18:55.606Z,77.69
2024-02-23T03:19:28.913Z,77.74
2024-02-23T03:20:02.495Z,77.60
2024-02-23T03:20:35.921Z,77.64
2024-02-23T03:21:10.692Z,77.96
2024-02-23T03:21:43.839Z,77.91
2024-02-23T03:22:17.237Z,77.70
2024-02-23T03:22:50.370Z,77.38
2024-02-23T03:23:23.415Z,77.28
2024-02-23T03:23:56.519Z,77.24
2024-02-23T03:24:29.528Z,77.66
2024-02-23T03:25:09.244Z,77.37
2024-02-23T03:25:42.551Z,77.24
2024-02-23T03:26:18.486Z,77.60
2024-02-23T03:26:51.945Z,77.64
2024-02-23T03:27:30.286Z,77.79
2024-02-23T03:28:03.763Z,77.86
2024-02-23T03:28:37.194Z,77.83
2024-02-23T03:29:11.191Z,77.70
2024-02-23T03:29:44.509Z,77.84
2024-02-23T03:30:17.684Z,77.91
2024-02-23T03:30:50.750Z,77.93
2024-02-23T03:31:23.888Z,77.62
2024-02-23T03:31:57.463Z,77.90
2024-02-23T03:32:32.522Z,77.87
2024-02-23T03:33:06.393Z,78.16
2024-02-23T03:33:39.801Z,78.07
2024-02-23T03:34:14.384Z,78.36
2024-02-23T03:34:47.714Z,78.29
2024-02-23T03:35:20.928Z,78.20
2024-02-23T03:35:54.210Z,78.06
2024-02-23T03:36:27.676Z,77.68
2024-02-23T03:37:03.601Z,77.91
2024-02-23T03:37:36.960Z,77.79
2024-02-23T03:38:10.199Z,77.73
2024-02-23T03:38:43.492Z,77.61
2024-02-23T03:39:16.714Z,77.74
2024-02-23T03:39:50.445Z,77.57
2024-02-23T03:40:23.694Z,77.81
2024-02-23T03:40:57.283Z,77.57
2024-02-23T03:41:30.810Z,77.64
2024-02-23T03:42:04.863Z,77.63
2024-02-23T03:42:38.070Z,77.99
2024-02-23T03:43:11.324Z,77.79
2024-02-23T03:43:44.520Z,77.74
2024-02-23T03:44:17.568Z,77.79
2024-02-23T03:44:51.783Z,78.22
2024-02-23T03:45:24.941Z,78.17
2024-02-23T03:45:57.945Z,78.23
2024-02-23T03:46:31.138Z,78.23
2024-02-23T03:47:04.116Z,78.14
2024-02-23T03:47:37.479Z,78.33
2024-02-23T03:48:10.700Z,78.49
2024-02-23T03:48:43.669Z,78.12
2024-02-23T03:49:16.866Z,78.01
2024-02-23T03:49:50.051Z,78.24
2024-02-23T03:50:23.240Z,78.08
2024-02-23T03:50:56.490Z,78.36
2024-02-23T03:51:29.708Z,78.50
2024-02-23T03:52:02.922Z,78.37
2024-02-23T03:52:36.687Z,78.66
2024-02-23T03:53:09.871Z,78.70
2024-02-23T03:53:43.078Z,78.92
2024-02-23T03:54:16.248Z,78.66
2024-02-23T03:54:50.403Z,78.80
2024-02-23T03:55:23.718Z,78.57
2024-02-23T03:55:58.283Z,78.40
2024-02-23T03:56:31.702Z,78.60
2024-02-23T03:57:05.251Z,78.64
2024-02-23T03:57:38.907Z,78.51
2024-02-23T03:58:12.506Z,78.86
2024-02-23T03:58:45.593Z,78.73
2024-02-23T03:59:18.623Z,78.82
2024-02-23T03:59:54.659Z,79.06
2024-02-23T04:00:27.745Z,79.19
2024-02-23T04:01:00.837Z,79.22
2024-02-23T04:01:33.954Z,79.07
2024-02-23T04:02:07.026Z,79.03
2024-02-23T04:02:40.395Z,79.25
2024-02-23T04:03:13.508Z,79.40
2024-02-23T04:03:46.537Z,79.28
2024-02-23T04:04:19.892Z,79.47
2024-02-23T04:04:53.285Z,79.54
2024-02-23T04:05:26.461Z,79.69
2024-02-23T04:05:59.714Z,79.67
2024-02-23T04:06:35.077Z,79.88
2024-02-23T04:07:08.355Z,79.68
2024-02-23T04:07:41.465Z,79.64
2024-02-23T04:08:14.675Z,79.60
2024-02-23T04:08:50.973Z,79.80
2024-02-23T04:09:24.444Z,79.60
2024-02-23T04:09:57.904Z,79.80
2024-02-23T04:10:30.960Z,79.76
2024-02-23T04:11:04.337Z,79.79
2024-02-23T04:11:37.742Z,79.43
2024-02-23T04:12:11.077Z,79.56
2024-02-23T04:12:44.884Z,79.49
2024-02-23T04:13:19.031Z,79.39
2024-02-23T04:13:53.016Z,79.23
2024-02-23T04:14:26.441Z,79.27
2024-02-23T04:14:59.620Z,79.32
2024-02-23T04:15:32.783Z,79.27
2024-02-23T04:16:06.079Z,79.79
2024-02-23T04:16:39.289Z,79.66
2024-02-23T04:17:13.202Z,80.03
2024-02-23T04:17:47.789Z,80.01
2024-02-23T04:18:21.002Z,79.78
2024-02-23T04:18:55.036Z,79.54
2024-02-23T04:19:28.350Z,79.48
2024-02-23T04:20:06.377Z,79.63
2024-02-23T04:20:39.597Z,79.99
2024-02-23T04:21:12.857Z,79.56
2024-02-23T04:21:45.809Z,79.59
2024-02-23T04:22:19.003Z,79.74
2024-02-23T04:22:52.197Z,79.87
2024-02-23T04:23:25.314Z,79.93
2024-02-23T04:23:59.097Z,80.14
2024-02-23T04:24:32.247Z,80.07
2024-02-23T04:25:06.363Z,80.07
2024-02-23T04:25:39.682Z,79.86
2024-02-23T04:26:13.184Z,79.60
2024-02-23T04:26:46.283Z,79.79
2024-02-23T04:27:19.287Z,79.77
2024-02-23T04:27:52.423Z,79.92
2024-02-23T04:28:27.817Z,79.65
2024-02-23T04:29:01.068Z,79.62
2024-02-23T04:29:34.526Z,79.75
2024-02-23T04:30:08.697Z,79.47
2024-02-23T04:30:41.866Z,79.46
2024-02-23T04:31:15.032Z,79.42
2024-02-23T04:31:48.166Z,79.25
2024-02-23T04:32:21.345Z,79.25
2024-02-23T04:32:54.386Z,79.28
2024-02-23T04:33:27.498Z,79.22
2024-02-23T04:34:00.662Z,79.48
2024-02-23T04:34:34.106Z,79.51
2024-02-23T04:35:07.708Z,79.81
2024-02-23T04:35:40.983Z,79.50
2024-02-23T04:36:14.499Z,79.18
2024-02-23T04:36:47.990Z,79.07
2024-02-23T04:37:21.116Z,79.11
2024-02-23T04:37:54.206Z,79.37
2024-02-23T04:38:27.390Z,78.62
2024-02-23T04:39:00.408Z,78.56
2024-02-23T04:39:33.814Z,78.75
2024-02-23T04:40:07.901Z,79.07
2024-02-23T04:40:41.027Z,78.80
2024-02-23T04:41:14.062Z,78.95
2024-02-23T04:41:47.171Z,79.20
2024-02-23T04:42:20.152Z,79.16
2024-02-23T04:42:53.178Z,79.01
2024-02-23T04:43:26.649Z,79.29
2024-02-23T04:44:02.824Z,79.30
2024-02-23T04:44:37.326Z,79.41
2024-02-23T04:45:10.647Z,79.34
2024-02-23T04:45:43.756Z,79.12
2024-02-23T04:46:16.705Z,79.29
2024-02-23T04:46:49.863Z,79.42
2024-02-23T04:47:23.489Z,79.18
2024-02-23T04:47:56.644Z,79.35
2024-02-23T04:48:32.196Z,79.25
2024-02-23T04:49:05.528Z,79.23
2024-02-23T04:49:38.956Z,79.36
2024-02-23T04:50:12.414Z,79.32
2024-02-23T04:50:45.516Z,79.26
2024-02-23T04:51:18.620Z,79.19
2024-02-23T04:51:51.732Z,79.41
2024-02-23T04:52:24.806Z,79.32
2024-02-23T04:52:57.949Z,79.39
2024-02-23T04:53:31.640Z,79.52
2024-02-23T04:54:04.851Z,79.42
2024-02-23T04:54:37.756Z,79.34
2024-02-23T04:55:10.955Z,79.51
2024-02-23T04:55:43.897Z,79.23
2024-02-23T04:56:17.071Z,79.57
2024-02-23T04:56:51.651Z,79.38
2024-02-23T04:57:24.723Z,79.25
2024-02-23T04:57:57.924Z,79.42
2024-02-23T04:58:31.097Z,79.67
2024-02-23T04:59:04.667Z,79.93
2024-02-23T04:59:37.877Z,79.56
2024-02-23T05:00:11.658Z,79.87
2024-02-23T05:00:44.834Z,79.61
2024-02-23T05:01:17.776Z,79.86
2024-02-23T05:01:50.990Z,79.61
2024-02-23T05:02:24.216Z,79.91
2024-02-23T05:02:58.131Z,80.11
2024-02-23T05:03:31.267Z,80.01
2024-02-23T05:04:04.742Z,79.98
2024-02-23T05:04:38.108Z,79.83
2024-02-23T05:05:11.273Z,79.51
2024-02-23T05:05:44.523Z,79.42
2024-02-23T05:06:17.720Z,79.30
2024-02-23T05:06:50.921Z,79.31
2024-02-23T05:07:24.074Z,79.45
2024-02-23T05:07:57.141Z,79.59
2024-02-23T05:08:31.759Z,79.51
2024-02-23T05:09:05.055Z,79.72
2024-02-23T05:09:38.133Z,79.68
2024-02-23T05:10:11.323Z,79.89
2024-02-23T05:10:44.515Z,79.95
2024-02-23T05:11:17.702Z,79.61
2024-02-23T05:11:51.232Z,79.80
2024-02-23T05:12:24.361Z,80.02
2024-02-23T05:12:57.415Z,79.91
2024-02-23T05:13:30.558Z,80.09
2024-02-23T05:14:03.642Z,80.34
2024-02-23T05:14:36.936Z,80.38
2024-02-23T05:15:10.300Z,80.10
2024-02-23T05:15:43.556Z,80.18
2024-02-23T05:16:16.661Z,79.80
2024-02-23T05:16:49.614Z,79.89
2024-02-23T05:17:22.769Z,79.84
2024-02-23T05:17:56.054Z,79.67
2024-02-23T05:18:29.035Z,79.56
2024-02-23T05:19:02.152Z,79.53
2024-02-23T05:19:35.205Z,79.53
2024-02-23T05:20:11.466Z,79.55
2024-02-23T05:20:44.679Z,79.67
2024-02-23T05:21:18.391Z,79.59
2024-02-23T05:21:51.578Z,79.45
2024-02-23T05:22:24.735Z,79.67
2024-02-23T05:22:57.668Z,79.50
2024-02-23T05:23:30.832Z,79.66
2024-02-23T05:24:04.513Z,79.65
2024-02-23T05:24:37.613Z,79.71
2024-02-23T05:25:10.730Z,79.97
2024-02-23T05:25:43.931Z,79.77
2024-02-23T05:26:17.043Z,79.86
2024-02-23T05:26:50.092Z,79.87
2024-02-23T05:27:23.201Z,79.55
2024-02-23T05:27:56.204Z,79.09
2024-02-23T05:28:29.314Z,79.49
2024-02-23T05:29:03.576Z,79.63
2024-02-23T05:29:36.828Z,79.27
2024-02-23T05:30:10.888Z,79.07
2024-02-23T05:30:43.960Z,79.01
2024-02-23T05:31:17.073Z,79.15
2024-02-23T05:31:52.659Z,79.32
2024-02-23T05:32:25.853Z,79.49
2024-02-23T05:32:59.683Z,79.27
2024-02-23T05:33:33.056Z,79.14
2024-02-23T05:34:06.181Z,79.10
2024-02-23T05:34:39.587Z,79.14
2024-02-23T05:35:12.949Z,79.01
2024-02-23T05:35:46.347Z,78.71
2024-02-23T05:36:20.951Z,78.78
2024-02-23T05:36:54.062Z,78.36
2024-02-23T05:37:28.155Z,78.36
2024-02-23T05:38:01.577Z,78.42
2024-02-23T05:38:34.795Z,78.43
2024-02-23T05:39:08.719Z,78.36
2024-02-23T05:39:41.949Z,78.42
2024-02-23T05:40:15.624Z,78.19
2024-02-23T05:40:49.682Z,78.15
2024-02-23T05:41:22.896Z,77.85
2024-02-23T05:41:56.383Z,77.90
2024-02-23T05:42:29.506Z,77.85
2024-02-23T05:43:02.765Z,77.73
2024-02-23T05:43:36.472Z,78.00
2024-02-23T05:44:09.736Z,77.96
2024-02-23T05:44:45.928Z,77.74
2024-02-23T05:45:19.516Z,77.60
2024-02-23T05:45:52.826Z,76.98
2024-02-23T05:46:26.062Z,77.09
2024-02-23T05:46:59.227Z,77.64
2024-02-23T05:47:32.913Z,77.42
2024-02-23T05:48:06.665Z,77.61
2024-02-23T05:48:39.942Z,77.66
2024-02-23T05:49:13.849Z,77.59
2024-02-23T05:49:47.172Z,77.90
2024-02-23T05:50:20.331Z,77.67
2024-02-23T05:50:53.873Z,77.60
2024-02-23T05:51:27.028Z,77.68
2024-02-23T05:52:00.217Z,77.65
2024-02-23T05:52:33.945Z,77.55
2024-02-23T05:53:07.151Z,77.58
2024-02-23T05:53:42.340Z,77.66
2024-02-23T05:54:15.447Z,77.68
2024-02-23T05:54:51.066Z,77.85
2024-02-23T05:55:25.528Z,78.01
2024-02-23T05:55:58.519Z,77.88
2024-02-23T05:56:31.891Z,78.06
2024-02-23T05:57:05.961Z,77.93
2024-02-23T05:57:39.182Z,78.22
2024-02-23T05:58:14.789Z,77.83
2024-02-23T05:58:47.856Z,77.97
2024-02-23T05:59:20.911Z,78.22
2024-02-23T05:59:55.040Z,78.16
2024-02-23T06:00:28.638Z,78.00
2024-02-23T06:01:02.602Z,78.28
2024-02-23T06:01:36.058Z,77.98
2024-02-23T06:02:09.544Z,77.81
2024-02-23T06:02:43.158Z,77.99
2024-02-23T06:03:16.633Z,77.84
2024-02-23T06:03:50.105Z,77.80
2024-02-23T06:04:24.972Z,77.85
2024-02-23T06:04:58.728Z,78.15
2024-02-23T06:05:32.367Z,77.88
2024-02-23T06:06:09.908Z,78.11
2024-02-23T06:06:45.378Z,77.75
2024-02-23T06:07:24.674Z,78.12
2024-02-23T06:07:58.283Z,77.99
2024-02-23T06:08:31.773Z,77.97
2024-02-23T06:09:07.009Z,77.36
2024-02-23T06:09:40.557Z,77.40
2024-02-23T06:10:14.034Z,77.28
2024-02-23T06:10:47.508Z,77.65
2024-02-23T06:11:21.158Z,77.27
2024-02-23T06:11:54.839Z,77.32
2024-02-23T06:12:28.513Z,77.02
2024-02-23T06:13:04.304Z,77.29
2024-02-23T06:13:38.388Z,77.60
2024-02-23T06:14:12.781Z,77.43
2024-02-23T06:14:46.225Z,77.41
2024-02-23T06:15:19.682Z,77.61
2024-02-23T06:15:53.549Z,77.61
2024-02-23T06:16:27.020Z,77.66
2024-02-23T06:17:00.479Z,77.28
2024-02-23T06:17:34.090Z,77.62
2024-02-23T06:18:07.813Z,77.56
2024-02-23T06:18:42.415Z,77.54
2024-02-23T06:19:15.940Z,77.54
2024-02-23T06:19:49.642Z,77.53
2024-02-23T06:20:23.135Z,77.63
2024-02-23T06:20:56.629Z,77.66
2024-02-23T06:21:30.121Z,77.76
2024-02-23T06:22:03.710Z,77.58
2024-02-23T06:22:37.105Z,78.01
2024-02-23T06:23:10.533Z,77.77
2024-02-23T06:23:44.091Z,77.67
2024-02-23T06:24:18.189Z,77.85
2024-02-23T06:24:51.675Z,78.08
2024-02-23T06:25:25.025Z,77.97
2024-02-23T06:25:58.509Z,78.09
2024-02-23T06:26:32.081Z,78.23
2024-02-23T06:27:05.955Z,78.05
2024-02-23T06:27:39.708Z,78.40
2024-02-23T06:28:13.450Z,78.48
2024-02-23T06:28:47.147Z,78.54
2024-02-23T06:29:21.109Z,78.36
2024-02-23T06:29:57.098Z,78.68
2024-02-23T06:30:30.622Z,78.83
2024-02-23T06:31:05.274Z,78.94
2024-02-23T06:31:39.480Z,78.58
2024-02-23T06:32:13.000Z,78.79
2024-02-23T06:32:47.401Z,78.27
2024-02-23T06:33:21.402Z,78.78
2024-02-23T06:33:55.151Z,78.50
2024-02-23T06:34:28.771Z,78.77
2024-02-23T06:35:02.441Z,78.55
2024-02-23T06:35:35.991Z,78.81
2024-02-23T06:36:10.825Z,79.14
2024-02-23T06:36:44.547Z,78.71
2024-02-23T06:37:18.190Z,79.11
2024-02-23T06:37:51.694Z,78.97
2024-02-23T06:38:25.236Z,79.11
2024-02-23T06:38:58.862Z,79.12
2024-02-23T06:39:32.586Z,79.31
2024-02-23T06:40:08.488Z,79.28
2024-02-23T06:40:48.771Z,78.91
2024-02-23T06:41:26.321Z,78.72
2024-02-23T06:42:01.992Z,78.78
2024-02-23T06:42:35.647Z,78.60
2024-02-23T06:43:09.189Z,78.80
2024-02-23T06:43:56.140Z,78.92
2024-02-23T06:44:29.949Z,78.76
2024-02-23T06:45:19.057Z,78.65
2024-02-23T06:46:10.080Z,78.79
2024-02-23T06:46:45.557Z,78.38
2024-02-23T06:47:26.461Z,78.63
2024-02-23T06:48:13.174Z,78.62
2024-02-23T06:48:47.194Z,78.93
2024-02-23T06:49:20.542Z,79.13
2024-02-23T06:49:53.842Z,79.22
2024-02-23T06:57:08.750Z,79.53
2024-02-23T06:57:45.160Z,79.62
2024-02-23T06:58:28.613Z,79.88
2024-02-23T06:59:33.531Z,80.08
2024-02-23T07:00:25.300Z,79.80
2024-02-23T07:00:58.737Z,79.64
2024-02-23T07:01:32.439Z,79.79
2024-02-23T07:02:06.066Z,79.74
2024-02-23T07:02:55.038Z,79.62
2024-02-23T07:03:31.690Z,79.73
2024-02-23T07:04:05.453Z,79.89
2024-02-23T07:04:38.731Z,80.07
2024-02-23T07:05:12.308Z,79.90
2024-02-23T07:05:46.790Z,80.06
2024-02-23T07:06:21.153Z,79.92
2024-02-23T07:06:56.975Z,80.14
2024-02-23T07:07:31.487Z,80.09
2024-02-23T07:08:05.436Z,79.94
2024-02-23T07:08:39.177Z,79.75
2024-02-23T07:09:12.853Z,79.71
2024-02-23T07:09:46.450Z,79.97
2024-02-23T07:10:21.656Z,79.73
2024-02-23T07:10:55.258Z,79.98
2024-02-23T07:11:28.823Z,79.90
2024-02-23T07:12:02.866Z,79.98
2024-02-23T07:12:36.767Z,79.96
2024-02-23T07:13:10.277Z,79.67
2024-02-23T07:13:45.034Z,79.90
2024-02-23T07:14:19.466Z,79.94
2024-02-23T07:14:52.785Z,80.04
2024-02-23T07:15:27.230Z,80.00
2024-02-23T07:16:01.990Z,80.02
2024-02-23T07:16:39.998Z,79.86
2024-02-23T07:17:13.387Z,79.91
2024-02-23T07:17:47.193Z,79.86
2024-02-23T07:18:20.660Z,79.98
2024-02-23T07:18:54.554Z,79.74
2024-02-23T07:19:27.928Z,79.74
2024-02-23T07:20:07.411Z,79.82
2024-02-23T07:20:40.770Z,79.51
2024-02-23T07:21:14.163Z,79.71
2024-02-23T07:21:47.971Z,79.93
2024-02-23T07:22:21.822Z,79.54
2024-02-23T07:22:55.395Z,79.81
2024-02-23T07:23:28.924Z,79.80
2024-02-23T07:24:02.493Z,79.72
2024-02-23T07:24:40.483Z,80.12
2024-02-23T07:25:18.356Z,80.03
2024-02-23T07:25:52.197Z,80.01
2024-02-23T07:26:25.809Z,80.09
2024-02-23T07:26:59.227Z,80.09
2024-02-23T07:27:32.818Z,80.36
2024-02-23T07:28:06.564Z,80.09